createdAt,value
2019-01-24T00:01:44.334Z,11.57
2019-01-24T00:06:47.821Z,11.37
2019-01-24T00:11:51.310Z,11.60
2019-01-24T00:16:54.791Z,10.57
2019-01-24T00:21:58.275Z,11.15
2019-01-24T00:27:01.761Z,12.15
2019-01-24T00:32:05.421Z,12.15
2019-01-24T00:37:08.915Z,11.00
2019-01-24T00:42:12.400Z,11.70
2019-01-24T00:47:15.884Z,11.80
2019-01-24T00:52:19.367Z,10.63
2019-01-24T00:57:22.855Z,11.33
2019-01-24T01:02:26.348Z,11.50
2019-01-24T01:07:29.833Z,10.63
2019-01-24T01:12:33.319Z,10.20
2019-01-24T01:17:36.810Z,10.05
2019-01-24T01:22:40.295Z,11.47
2019-01-24T01:27:44.053Z,11.20
2019-01-24T01:32:47.607Z,10.47
2019-01-24T01:37:51.106Z,10.73
2019-01-24T01:42:54.602Z,9.60
2019-01-24T01:47:58.113Z,11.03
2019-01-24T01:53:01.584Z,10.47
2019-01-24T01:58:05.206Z,9.73
2019-01-24T02:03:08.696Z,9.93
2019-01-24T02:08:12.178Z,9.97
2019-01-24T02:13:15.667Z,11.30
2019-01-24T02:18:19.391Z,9.63
2019-01-24T02:23:22.878Z,10.25
2019-01-24T02:28:26.359Z,10.90
2019-01-24T02:33:29.843Z,9.80
2019-01-24T02:38:33.327Z,9.65
2019-01-24T02:43:36.813Z,10.00
2019-01-24T02:48:40.286Z,9.40
2019-01-24T02:53:43.766Z,9.40
2019-01-24T02:58:47.257Z,9.50
2019-01-24T03:03:50.735Z,9.17
2019-01-24T03:08:54.221Z,9.73
2019-01-24T03:13:57.704Z,9.27
2019-01-24T03:19:01.256Z,9.13
2019-01-24T03:24:05.016Z,9.43
2019-01-24T03:29:08.499Z,9.27
2019-01-24T03:34:11.983Z,10.03
2019-01-24T03:39:15.465Z,9.38
2019-01-24T03:44:18.953Z,8.93
2019-01-24T03:49:22.435Z,8.63
2019-01-24T03:54:25.921Z,8.77
2019-01-24T03:59:29.403Z,8.13
2019-01-24T04:04:32.886Z,8.07
2019-01-24T04:09:36.370Z,8.30
2019-01-24T04:14:39.854Z,9.00
2019-01-24T04:19:43.314Z,8.57
2019-01-24T04:24:46.801Z,7.90
2019-01-24T04:29:50.294Z,8.60
2019-01-24T04:34:53.772Z,8.67
2019-01-24T04:39:57.252Z,8.43
2019-01-24T04:45:00.743Z,8.70
2019-01-24T04:50:07.355Z,7.80
2019-01-24T04:55:13.645Z,8.37
2019-01-24T05:00:28.394Z,9.20
2019-01-24T05:05:31.882Z,8.53
2019-01-24T05:10:35.356Z,8.40
2019-01-24T05:15:38.837Z,8.33
2019-01-24T05:20:42.314Z,8.27
2019-01-24T05:25:45.796Z,7.70
2019-01-24T05:30:49.279Z,8.27
2019-01-24T05:35:52.762Z,8.10
2019-01-24T05:40:56.255Z,8.60
2019-01-24T05:45:59.738Z,7.83
2019-01-24T05:51:03.215Z,7.47
2019-01-24T05:56:06.695Z,7.13
2019-01-24T06:01:10.343Z,6.67
2019-01-24T06:06:13.823Z,7.30
2019-01-24T06:11:17.308Z,7.87
2019-01-24T06:16:20.794Z,6.80
2019-01-24T06:21:24.271Z,7.47
2019-01-24T06:26:27.747Z,7.53
2019-01-24T06:31:31.232Z,7.77
2019-01-24T06:36:34.725Z,6.73
2019-01-24T06:41:38.210Z,7.87
2019-01-24T06:46:41.696Z,7.20
2019-01-24T06:51:45.185Z,7.03
2019-01-24T06:56:48.677Z,6.23
2019-01-24T07:01:52.159Z,6.90
2019-01-24T07:06:55.639Z,6.77
2019-01-24T07:11:59.122Z,6.57
2019-01-24T07:17:02.607Z,7.30
2019-01-24T07:22:06.099Z,7.17
2019-01-24T07:27:09.578Z,6.90
2019-01-24T07:32:13.064Z,6.93
2019-01-24T07:37:16.544Z,7.05
2019-01-24T07:42:20.031Z,6.97
2019-01-24T07:47:23.506Z,6.37
2019-01-24T07:52:26.993Z,13.10
2019-01-24T07:57:30.483Z,16.90
2019-01-24T08:02:33.968Z,16.63
2019-01-24T08:07:37.452Z,16.00
2019-01-24T08:12:40.942Z,15.10
2019-01-24T08:17:44.572Z,14.47
2019-01-24T08:22:48.062Z,13.60
2019-01-24T08:27:51.689Z,11.97
2019-01-24T08:32:55.239Z,12.23
2019-01-24T08:37:58.896Z,12.05
2019-01-24T08:43:02.388Z,10.30
2019-01-24T08:48:05.872Z,10.97
2019-01-24T08:53:09.362Z,10.73
2019-01-24T08:58:12.848Z,10.77
2019-01-24T09:03:16.969Z,8.68
2019-01-24T09:08:20.454Z,10.07
2019-01-24T09:13:23.947Z,10.40
2019-01-24T09:18:27.427Z,9.43
2019-01-24T09:23:30.912Z,10.70
2019-01-24T09:28:34.395Z,10.73
2019-01-24T09:33:37.880Z,11.90
2019-01-24T09:38:41.371Z,11.73
2019-01-24T09:43:44.864Z,11.53
2019-01-24T09:48:48.347Z,12.00
2019-01-24T09:53:51.836Z,12.97
2019-01-24T09:58:55.494Z,12.73
2019-01-24T10:03:58.985Z,12.37
2019-01-24T10:09:02.470Z,13.00
2019-01-24T10:14:06.031Z,12.40
2019-01-24T10:19:09.513Z,12.47
2019-01-24T10:24:13.003Z,12.37
2019-01-24T10:29:16.498Z,12.17
2019-01-24T10:34:19.981Z,12.30
2019-01-24T10:39:23.475Z,13.22
2019-01-24T10:44:26.961Z,13.23
2019-01-24T10:49:30.451Z,13.20
2019-01-24T10:54:33.941Z,11.65
2019-01-24T10:59:37.429Z,11.30
2019-01-24T11:04:40.918Z,13.60
2019-01-24T11:09:44.405Z,12.77
2019-01-24T11:14:47.962Z,12.63
2019-01-24T11:19:51.478Z,13.32
2019-01-24T11:24:54.946Z,13.50
2019-01-24T11:29:58.438Z,12.33
2019-01-24T11:35:01.925Z,12.73
2019-01-24T11:40:08.621Z,12.53
2019-01-24T11:45:14.231Z,11.77
2019-01-24T11:50:19.044Z,13.07
2019-01-24T11:55:22.785Z,12.03
2019-01-24T12:00:33.273Z,12.03
2019-01-24T12:05:36.745Z,11.63
2019-01-24T12:10:40.204Z,12.27
2019-01-24T12:15:43.673Z,12.33
2019-01-24T12:20:47.317Z,11.93
2019-01-24T12:25:50.790Z,11.70
2019-01-24T12:30:54.261Z,12.00
2019-01-24T12:35:57.738Z,11.18
2019-01-24T12:41:01.209Z,11.30
2019-01-24T12:46:04.815Z,11.17
2019-01-24T12:51:08.283Z,12.70
2019-01-24T12:56:11.752Z,16.75
2019-01-24T13:01:15.219Z,15.63
2019-01-24T13:06:18.687Z,14.13
2019-01-24T13:11:22.157Z,12.97
2019-01-24T13:16:25.624Z,12.83
2019-01-24T13:21:29.094Z,11.40
2019-01-24T13:26:32.559Z,11.67
2019-01-24T13:31:36.030Z,10.63
2019-01-24T13:36:39.500Z,11.03
2019-01-24T13:41:42.974Z,10.30
2019-01-24T13:46:46.447Z,11.00
2019-01-24T13:51:49.911Z,9.50
2019-01-24T13:56:54.265Z,9.77
2019-01-24T14:01:57.746Z,11.15
2019-01-24T14:07:01.221Z,9.50
2019-01-24T14:12:04.951Z,9.37
2019-01-24T14:17:08.424Z,10.65
2019-01-24T14:22:11.891Z,9.17
2019-01-24T14:27:15.413Z,9.45
2019-01-24T14:32:18.827Z,8.70
2019-01-24T14:37:22.291Z,8.65
2019-01-24T14:42:25.927Z,9.20
2019-01-24T14:47:29.394Z,9.43
2019-01-24T14:52:32.934Z,8.37
2019-01-24T14:57:36.398Z,9.10
2019-01-24T15:02:41.318Z,9.20
2019-01-24T15:07:47.301Z,9.27
2019-01-24T15:12:50.536Z,8.17
2019-01-24T15:17:54.075Z,8.40
2019-01-24T15:22:57.931Z,9.03
2019-01-24T15:28:01.473Z,9.43
2019-01-24T15:33:05.179Z,8.73
2019-01-24T15:38:08.822Z,9.43
2019-01-24T15:43:12.836Z,8.23
2019-01-24T15:48:16.648Z,8.00
2019-01-24T15:53:20.571Z,8.77
2019-01-24T15:58:24.497Z,7.97
2019-01-24T16:03:28.426Z,8.23
2019-01-24T16:08:32.244Z,7.83
2019-01-24T16:13:36.169Z,7.53
2019-01-24T16:18:40.086Z,8.93
2019-01-24T16:23:44.225Z,7.93
2019-01-24T16:28:48.152Z,7.57
2019-01-24T16:33:51.975Z,8.13
2019-01-24T16:38:56.103Z,7.67
2019-01-24T16:44:00.028Z,7.42
2019-01-24T16:49:04.257Z,7.75
2019-01-24T16:54:08.205Z,7.70
2019-01-24T16:59:12.105Z,7.15
2019-01-24T17:04:16.040Z,7.65
2019-01-24T17:09:19.958Z,7.00
2019-01-24T17:14:23.989Z,6.53
2019-01-24T17:19:27.811Z,7.42
2019-01-24T17:24:31.734Z,7.70
2019-01-24T17:29:35.670Z,7.40
2019-01-24T17:34:40.029Z,7.40
2019-01-24T17:39:44.173Z,6.95
2019-01-24T17:44:48.354Z,6.17
2019-01-24T17:49:52.394Z,7.05
2019-01-24T17:54:56.423Z,6.60
2019-01-24T18:00:00.443Z,7.10
2019-01-24T18:05:06.027Z,5.97
2019-01-24T18:10:14.220Z,6.50
2019-01-24T18:15:21.026Z,6.53
2019-01-24T18:20:27.617Z,6.78
2019-01-24T18:25:31.846Z,7.33
2019-01-24T18:30:35.981Z,6.37
2019-01-24T18:35:40.209Z,6.47
2019-01-24T18:40:44.538Z,5.53
2019-01-24T18:45:51.748Z,6.12
2019-01-24T18:50:55.980Z,6.40
2019-01-24T18:56:00.212Z,7.10
2019-01-24T19:01:05.150Z,6.20
2019-01-24T19:06:09.390Z,5.95
2019-01-24T19:11:13.624Z,5.73
2019-01-24T19:16:17.957Z,5.70
2019-01-24T19:21:22.388Z,5.80
2019-01-24T19:26:26.619Z,6.13
2019-01-24T19:31:30.859Z,5.90
2019-01-24T19:36:35.195Z,5.90
2019-01-24T19:41:39.429Z,5.95
2019-01-24T19:46:43.754Z,4.97
2019-01-24T19:51:48.200Z,5.60
2019-01-24T19:56:52.435Z,5.80
2019-01-24T20:01:56.965Z,5.10
2019-01-24T20:07:01.207Z,5.13
2019-01-24T20:12:05.974Z,5.72
2019-01-24T20:17:10.381Z,5.08
2019-01-24T20:22:14.637Z,4.83
2019-01-24T20:27:18.873Z,5.03
2019-01-24T20:32:23.200Z,5.57
2019-01-24T20:37:27.350Z,5.75
2019-01-24T20:42:31.666Z,5.30
2019-01-24T20:47:35.700Z,5.37
2019-01-24T20:52:39.940Z,4.97
2019-01-24T20:57:45.393Z,5.20
2019-01-24T21:02:49.835Z,5.17
2019-01-24T21:07:53.964Z,5.15
2019-01-24T21:12:57.892Z,5.00
2019-01-24T21:18:01.819Z,4.85
2019-01-24T21:23:05.844Z,5.03
2019-01-24T21:28:09.772Z,5.13
2019-01-24T21:33:13.695Z,4.90
2019-01-24T21:38:17.513Z,5.22
2019-01-24T21:43:21.421Z,5.10
2019-01-24T21:48:25.118Z,5.17
2019-01-24T21:53:28.577Z,4.95
2019-01-24T21:58:32.130Z,4.70
2019-01-24T22:03:35.653Z,4.40
2019-01-24T22:08:39.113Z,5.10
2019-01-24T22:13:42.578Z,4.30
2019-01-24T22:18:46.041Z,4.78
2019-01-24T22:23:49.502Z,4.67
2019-01-24T22:28:52.961Z,4.87
2019-01-24T22:33:56.421Z,4.83
2019-01-24T22:38:59.888Z,4.93
2019-01-24T22:44:03.349Z,4.62
2019-01-24T22:49:06.809Z,4.50
2019-01-24T22:54:10.274Z,4.47
2019-01-24T22:59:13.738Z,4.90
2019-01-24T23:04:17.272Z,4.05
2019-01-24T23:09:20.757Z,4.60
2019-01-24T23:14:24.204Z,4.85
2019-01-24T23:19:27.661Z,4.83
2019-01-24T23:24:31.128Z,4.67
2019-01-24T23:29:34.612Z,5.22
2019-01-24T23:34:38.087Z,4.00
2019-01-24T23:39:41.571Z,4.67
2019-01-24T23:44:45.064Z,4.60
2019-01-24T23:49:48.544Z,4.35
2019-01-24T23:54:52.025Z,4.20
2019-01-24T23:59:55.504Z,4.65
